createdAt,value
2022-12-03T00:01:36.046Z,1.15
2022-12-03T00:04:04.308Z,1.16
2022-12-03T00:06:34.687Z,1.14
2022-12-03T00:09:04.612Z,1.14
2022-12-03T00:11:32.867Z,1.20
2022-12-03T00:14:01.020Z,1.18
2022-12-03T00:16:29.108Z,1.16
2022-12-03T00:18:57.182Z,1.16
2022-12-03T00:21:25.354Z,1.16
2022-12-03T00:23:53.457Z,1.15
2022-12-03T00:26:21.584Z,1.17
2022-12-03T00:28:49.776Z,1.16
2022-12-03T00:31:18.063Z,1.16
2022-12-03T00:33:46.165Z,1.22
2022-12-03T00:36:14.211Z,1.22
2022-12-03T00:38:42.326Z,1.21
2022-12-03T00:41:10.358Z,1.20
2022-12-03T00:43:38.430Z,1.20
2022-12-03T00:46:06.553Z,1.20
2022-12-03T00:48:34.677Z,1.20
2022-12-03T00:51:02.846Z,1.19
2022-12-03T00:53:30.903Z,1.20
2022-12-03T00:55:59.141Z,1.25
2022-12-03T00:58:27.186Z,1.23
2022-12-03T01:00:55.235Z,1.21
2022-12-03T01:03:23.256Z,1.21
2022-12-03T01:05:51.351Z,1.21
2022-12-03T01:08:19.496Z,1.21
2022-12-03T01:10:47.497Z,1.20
2022-12-03T01:13:15.541Z,1.19
2022-12-03T01:15:43.749Z,1.19
2022-12-03T01:18:11.836Z,1.26
2022-12-03T01:20:39.956Z,1.26
2022-12-03T01:23:08.060Z,1.26
2022-12-03T01:25:36.074Z,1.26
2022-12-03T01:28:04.169Z,1.25
2022-12-03T01:30:52.200Z,1.23
2022-12-03T01:33:20.283Z,1.21
2022-12-03T01:35:48.310Z,1.23
2022-12-03T01:38:16.324Z,1.28
2022-12-03T01:40:44.420Z,1.29
2022-12-03T01:43:12.420Z,1.29
2022-12-03T01:45:40.570Z,1.29
2022-12-03T01:48:13.804Z,1.30
2022-12-03T01:50:42.841Z,1.30
2022-12-03T01:53:15.726Z,1.31
2022-12-03T01:55:48.445Z,1.29
2022-12-03T01:58:20.379Z,1.30
2022-12-03T02:00:48.400Z,1.37
2022-12-03T02:03:23.492Z,1.35
2022-12-03T02:05:52.671Z,1.35
2022-12-03T02:08:31.023Z,1.35
2022-12-03T02:11:03.361Z,1.36
2022-12-03T02:13:32.253Z,1.34
2022-12-03T02:16:00.458Z,1.32
2022-12-03T02:18:28.599Z,1.32
2022-12-03T02:21:06.882Z,1.39
2022-12-03T02:23:45.754Z,1.39
2022-12-03T02:26:13.803Z,1.37
2022-12-03T02:28:42.116Z,1.36
2022-12-03T02:31:10.308Z,1.35
2022-12-03T02:33:38.824Z,1.35
2022-12-03T02:36:07.214Z,1.32
2022-12-03T02:38:36.411Z,1.33
2022-12-03T02:41:09.766Z,1.39
2022-12-03T02:43:38.997Z,1.40
2022-12-03T02:46:08.171Z,1.38
2022-12-03T02:48:38.909Z,1.38
2022-12-03T02:51:11.272Z,1.39
2022-12-03T02:53:44.813Z,1.38
2022-12-03T02:56:16.208Z,1.37
2022-12-03T02:58:47.128Z,1.37
2022-12-03T03:01:16.912Z,1.43
2022-12-03T03:03:47.432Z,1.42
2022-12-03T03:06:17.332Z,1.40
2022-12-03T03:08:45.686Z,1.38
2022-12-03T03:11:13.826Z,1.39
2022-12-03T03:13:42.206Z,1.38
2022-12-03T03:16:10.691Z,1.38
2022-12-03T03:18:39.859Z,1.39
2022-12-03T03:21:08.264Z,1.46
2022-12-03T03:23:36.418Z,1.46
2022-12-03T03:26:12.060Z,1.44
2022-12-03T03:28:48.830Z,1.42
2022-12-03T03:31:21.464Z,1.44
2022-12-03T03:33:50.399Z,1.45
2022-12-03T03:36:20.271Z,1.45
2022-12-03T03:38:49.035Z,1.45
2022-12-03T03:41:18.494Z,1.50
2022-12-03T03:43:48.522Z,1.50
2022-12-03T03:46:17.903Z,1.50
2022-12-03T03:48:48.726Z,1.50
2022-12-03T03:51:18.004Z,1.49
2022-12-03T03:53:49.097Z,1.48
2022-12-03T03:56:19.528Z,1.47
2022-12-03T03:58:47.717Z,1.49
2022-12-03T04:01:17.144Z,1.53
2022-12-03T04:03:45.363Z,1.54
2022-12-03T04:06:13.416Z,1.53
2022-12-03T04:08:41.451Z,1.52
2022-12-03T04:11:28.222Z,1.53
2022-12-03T04:13:56.272Z,1.52
2022-12-03T04:16:24.355Z,1.48
2022-12-03T04:18:52.421Z,1.48
2022-12-03T04:21:41.791Z,1.54
2022-12-03T04:24:11.728Z,1.55
2022-12-03T04:26:58.451Z,1.54
2022-12-03T04:29:26.462Z,1.54
2022-12-03T04:32:13.092Z,1.55
2022-12-03T04:34:59.923Z,1.54
2022-12-03T04:37:27.985Z,1.53
2022-12-03T04:39:56.116Z,1.52
2022-12-03T04:42:24.166Z,1.58
2022-12-03T04:44:52.531Z,1.59
2022-12-03T04:47:22.027Z,1.60
2022-12-03T04:49:51.839Z,1.59
2022-12-03T04:52:21.330Z,1.59
2022-12-03T04:54:49.410Z,1.59
2022-12-03T04:57:17.577Z,1.60
2022-12-03T04:59:45.861Z,1.59
2022-12-03T05:02:14.004Z,1.63
2022-12-03T05:04:43.424Z,1.62
2022-12-03T05:07:11.835Z,1.62
2022-12-03T05:09:39.919Z,1.62
2022-12-03T05:12:07.976Z,1.62
2022-12-03T05:14:36.731Z,1.61
2022-12-03T05:17:04.915Z,1.59
2022-12-03T05:19:51.735Z,1.56
2022-12-03T05:22:19.845Z,1.56
2022-12-03T05:24:47.865Z,1.59
2022-12-03T05:27:20.216Z,1.58
2022-12-03T05:29:52.055Z,1.56
2022-12-03T05:32:20.480Z,1.54
2022-12-03T05:34:48.550Z,1.55
2022-12-03T05:37:16.688Z,1.54
2022-12-03T05:39:44.727Z,1.52
2022-12-03T05:42:31.439Z,1.53
2022-12-03T05:44:59.477Z,1.59
2022-12-03T05:47:27.514Z,1.58
2022-12-03T05:49:55.610Z,1.58
2022-12-03T05:52:23.662Z,1.60
2022-12-03T05:54:51.989Z,1.61
2022-12-03T05:57:20.576Z,1.60
2022-12-03T05:59:48.615Z,1.59
2022-12-03T06:02:16.709Z,1.58
2022-12-03T06:04:44.855Z,1.63
2022-12-03T06:07:14.290Z,1.64
2022-12-03T06:09:42.571Z,1.61
2022-12-03T06:12:10.604Z,1.59
2022-12-03T06:14:38.701Z,1.58
2022-12-03T06:17:06.852Z,1.58
2022-12-03T06:19:35.012Z,1.59
2022-12-03T06:22:03.144Z,1.58
2022-12-03T06:24:31.193Z,1.58
2022-12-03T06:26:59.259Z,1.62
2022-12-03T06:29:27.298Z,1.61
2022-12-03T06:31:55.454Z,1.60
2022-12-03T06:34:23.494Z,1.61
2022-12-03T06:36:51.527Z,1.59
2022-12-03T06:39:19.684Z,1.57
2022-12-03T06:41:47.715Z,1.57
2022-12-03T06:44:15.782Z,1.56
2022-12-03T06:46:43.916Z,1.62
2022-12-03T06:49:11.949Z,1.64
2022-12-03T06:51:40.093Z,1.62
2022-12-03T06:54:08.171Z,1.59
2022-12-03T06:56:41.885Z,1.56
2022-12-03T06:59:14.026Z,1.56
2022-12-03T07:01:42.344Z,1.54
2022-12-03T07:04:10.489Z,1.54
2022-12-03T07:06:38.603Z,1.61
2022-12-03T07:09:06.691Z,1.62
2022-12-03T07:11:40.567Z,1.59
2022-12-03T07:14:11.636Z,1.53
2022-12-03T07:16:40.658Z,1.48
2022-12-03T07:19:09.817Z,1.44
2022-12-03T07:21:38.269Z,1.43
2022-12-03T07:24:06.885Z,1.43
2022-12-03T07:26:35.019Z,1.51
2022-12-03T07:29:03.233Z,1.52
2022-12-03T07:31:31.430Z,1.45
2022-12-03T07:33:59.652Z,1.41
2022-12-03T07:36:27.669Z,1.39
2022-12-03T07:38:55.934Z,1.41
2022-12-03T07:41:23.959Z,1.40
2022-12-03T07:43:52.009Z,1.44
2022-12-03T07:46:20.113Z,1.54
2022-12-03T07:48:48.273Z,1.58
2022-12-03T07:51:16.438Z,1.61
2022-12-03T07:53:44.453Z,1.64
2022-12-03T07:56:12.548Z,1.64
2022-12-03T07:58:40.658Z,1.63
2022-12-03T08:01:08.843Z,1.67
2022-12-03T08:03:37.006Z,1.69
2022-12-03T08:06:05.223Z,1.74
2022-12-03T08:08:33.273Z,1.75
2022-12-03T08:11:02.322Z,1.73
2022-12-03T08:13:30.874Z,1.70
2022-12-03T08:16:09.142Z,1.71
2022-12-03T08:18:37.328Z,1.73
2022-12-03T08:21:06.858Z,1.76
2022-12-03T08:23:34.910Z,1.80
2022-12-03T08:26:27.598Z,1.84
2022-12-03T08:28:55.715Z,1.85
2022-12-03T08:31:32.765Z,1.85
2022-12-03T08:34:23.737Z,1.80
2022-12-03T08:36:58.060Z,1.79
2022-12-03T08:39:30.515Z,1.79
2022-12-03T08:42:28.146Z,1.76
2022-12-03T08:44:57.237Z,1.79
2022-12-03T08:47:25.509Z,1.86
2022-12-03T08:50:03.348Z,1.88
2022-12-03T08:52:33.877Z,1.90
2022-12-03T08:55:38.221Z,1.92
2022-12-03T08:58:32.255Z,1.94
2022-12-03T09:01:05.930Z,1.86
2022-12-03T09:03:34.636Z,1.85
2022-12-03T09:06:02.811Z,1.88
2022-12-03T09:08:31.723Z,1.95
2022-12-03T09:10:59.796Z,1.97
2022-12-03T09:13:27.812Z,2.00
2022-12-03T09:15:55.965Z,2.03
2022-12-03T09:18:24.093Z,2.06
2022-12-03T09:20:52.112Z,2.06
2022-12-03T09:23:20.158Z,2.05
2022-12-03T09:25:48.174Z,2.02
2022-12-03T09:28:16.170Z,2.07
2022-12-03T09:30:44.216Z,2.14
2022-12-03T09:33:12.364Z,2.16
2022-12-03T09:35:40.407Z,2.14
2022-12-03T09:38:08.448Z,2.10
2022-12-03T09:40:36.524Z,2.05
2022-12-03T09:43:05.271Z,1.98
2022-12-03T09:45:33.465Z,1.97
2022-12-03T09:48:04.136Z,1.98
2022-12-03T09:50:32.722Z,2.06
2022-12-03T09:53:03.971Z,2.10
2022-12-03T09:55:32.644Z,2.12
2022-12-03T09:58:00.937Z,2.16
2022-12-03T10:00:30.498Z,2.18
2022-12-03T10:03:03.143Z,2.16
2022-12-03T10:05:31.214Z,2.17
2022-12-03T10:08:06.918Z,2.17
2022-12-03T10:10:36.557Z,2.21
2022-12-03T10:13:06.177Z,2.26
2022-12-03T10:15:34.418Z,2.27
2022-12-03T10:18:21.798Z,2.27
2022-12-03T10:20:51.500Z,2.24
2022-12-03T10:23:24.069Z,2.20
2022-12-03T10:25:58.282Z,2.17
2022-12-03T10:28:37.007Z,2.16
2022-12-03T10:31:07.723Z,2.25
2022-12-03T10:33:44.994Z,2.25
2022-12-03T10:36:19.564Z,2.28
2022-12-03T10:39:12.985Z,2.33
2022-12-03T10:41:42.890Z,2.34
2022-12-03T10:44:22.497Z,2.34
2022-12-03T10:47:16.049Z,2.37
2022-12-03T10:49:44.298Z,2.44
2022-12-03T10:52:26.059Z,2.52
2022-12-03T10:54:54.524Z,2.55
2022-12-03T10:57:23.630Z,2.55
2022-12-03T10:59:51.789Z,2.58
2022-12-03T11:02:22.815Z,2.60
2022-12-03T11:04:51.931Z,2.65
2022-12-03T11:07:22.294Z,2.69
2022-12-03T11:09:52.606Z,2.76
2022-12-03T11:12:26.364Z,2.86
2022-12-03T11:14:55.125Z,2.85
2022-12-03T11:17:41.624Z,2.89
2022-12-03T11:20:32.386Z,2.96
2022-12-03T11:23:00.485Z,2.99
2022-12-03T11:25:28.553Z,3.02
2022-12-03T11:28:11.941Z,3.03
2022-12-03T11:30:48.925Z,3.04
2022-12-03T11:33:27.040Z,3.07
2022-12-03T11:36:04.330Z,3.18
2022-12-03T11:38:52.243Z,3.29
2022-12-03T11:41:28.919Z,3.40
2022-12-03T11:44:04.275Z,3.48
2022-12-03T11:46:43.807Z,3.54
2022-12-03T11:49:35.737Z,3.57
2022-12-03T11:52:20.261Z,3.63
2022-12-03T11:54:53.214Z,3.67
2022-12-03T11:57:31.010Z,3.73
2022-12-03T12:00:21.202Z,3.83
2022-12-03T12:02:50.826Z,3.86
2022-12-03T12:05:29.559Z,3.86
2022-12-03T12:07:57.803Z,3.89
2022-12-03T12:10:39.225Z,3.92
2022-12-03T12:13:24.881Z,3.93
2022-12-03T12:15:53.269Z,3.95
2022-12-03T12:18:43.638Z,3.97
2022-12-03T12:21:42.016Z,3.98
2022-12-03T12:24:29.195Z,4.02
2022-12-03T12:27:00.171Z,4.10
2022-12-03T12:29:28.570Z,4.10
2022-12-03T12:32:17.495Z,4.12
2022-12-03T12:34:51.297Z,4.14
2022-12-03T12:37:36.454Z,4.16
2022-12-03T12:40:12.954Z,4.17
2022-12-03T12:42:50.367Z,4.16
2022-12-03T12:45:30.370Z,4.15
2022-12-03T12:48:07.290Z,4.14
2022-12-03T12:50:37.334Z,4.14
2022-12-03T12:53:26.163Z,4.18
2022-12-03T12:56:07.142Z,4.18
2022-12-03T12:58:36.168Z,4.18
2022-12-03T13:01:08.067Z,4.19
2022-12-03T13:03:39.867Z,4.18
2022-12-03T13:06:15.157Z,4.15
2022-12-03T13:08:46.024Z,4.13
2022-12-03T13:11:39.683Z,4.11
2022-12-03T13:14:16.331Z,4.08
2022-12-03T13:16:45.271Z,4.05
2022-12-03T13:19:21.767Z,4.04
2022-12-03T13:21:51.979Z,4.10
2022-12-03T13:24:41.512Z,4.08
2022-12-03T13:27:19.749Z,4.04
2022-12-03T13:30:09.926Z,4.03
2022-12-03T13:32:38.541Z,3.93
2022-12-03T13:35:31.153Z,3.89
2022-12-03T13:37:59.567Z,3.87
2022-12-03T13:40:30.883Z,3.82
2022-12-03T13:42:59.594Z,3.76
2022-12-03T13:45:40.507Z,3.76
2022-12-03T13:48:17.728Z,3.74
2022-12-03T13:50:46.336Z,3.71
2022-12-03T13:53:23.393Z,3.70
2022-12-03T13:55:59.198Z,3.68
2022-12-03T13:58:27.261Z,3.66
2022-12-03T14:00:55.680Z,3.62
2022-12-03T14:03:23.718Z,3.59
2022-12-03T14:05:51.725Z,3.54
2022-12-03T14:08:19.853Z,3.54
2022-12-03T14:10:47.976Z,3.44
2022-12-03T14:13:15.980Z,3.31
2022-12-03T14:15:44.143Z,3.19
2022-12-03T14:18:12.174Z,3.07
2022-12-03T14:20:40.198Z,2.97
2022-12-03T14:23:08.259Z,2.87
2022-12-03T14:25:36.322Z,2.80
2022-12-03T14:28:08.776Z,2.82
2022-12-03T14:30:37.283Z,2.81
2022-12-03T14:33:05.342Z,2.74
2022-12-03T14:35:33.343Z,2.70
2022-12-03T14:38:01.353Z,2.61
2022-12-03T14:40:29.362Z,2.53
2022-12-03T14:42:57.424Z,2.47
2022-12-03T14:45:27.779Z,2.44
2022-12-03T14:47:56.253Z,2.52
2022-12-03T14:50:26.943Z,2.54
2022-12-03T14:52:55.070Z,2.53
2022-12-03T14:55:23.276Z,2.51
2022-12-03T14:57:51.421Z,2.48
2022-12-03T15:00:20.392Z,2.46
2022-12-03T15:02:48.475Z,2.45
2022-12-03T15:05:16.744Z,2.43
2022-12-03T15:07:45.150Z,2.42
2022-12-03T15:10:13.265Z,2.47
2022-12-03T15:12:41.295Z,2.44
2022-12-03T15:15:10.460Z,2.41
2022-12-03T15:17:38.610Z,2.38
2022-12-03T15:20:07.637Z,2.37
2022-12-03T15:22:35.655Z,2.34
2022-12-03T15:25:04.163Z,2.30
2022-12-03T15:27:32.218Z,2.25
2022-12-03T15:30:00.334Z,2.23
2022-12-03T15:32:28.474Z,2.28
2022-12-03T15:34:56.549Z,2.25
2022-12-03T15:37:27.765Z,2.22
2022-12-03T15:39:56.240Z,2.19
2022-12-03T15:42:24.640Z,2.17
2022-12-03T15:44:52.692Z,2.15
2022-12-03T15:47:20.777Z,2.12
2022-12-03T15:49:49.048Z,2.12
2022-12-03T15:52:17.179Z,2.15
2022-12-03T15:54:46.225Z,2.15
2022-12-03T15:57:14.269Z,2.12
2022-12-03T15:59:43.300Z,2.11
2022-12-03T16:02:11.476Z,2.10
2022-12-03T16:04:39.814Z,2.10
2022-12-03T16:07:07.931Z,2.08
2022-12-03T16:09:36.105Z,2.06
2022-12-03T16:12:04.364Z,2.09
2022-12-03T16:14:32.623Z,2.13
2022-12-03T16:17:01.213Z,2.12
2022-12-03T16:19:29.209Z,2.11
2022-12-03T16:21:57.388Z,2.11
2022-12-03T16:24:25.446Z,2.10
2022-12-03T16:26:53.580Z,2.07
2022-12-03T16:29:21.708Z,2.04
2022-12-03T16:31:49.761Z,2.02
2022-12-03T16:34:17.813Z,2.06
2022-12-03T16:36:45.971Z,2.05
2022-12-03T16:39:14.038Z,2.05
2022-12-03T16:41:42.127Z,2.07
2022-12-03T16:44:20.254Z,2.06
2022-12-03T16:46:48.450Z,2.05
2022-12-03T16:49:16.927Z,2.03
2022-12-03T16:51:44.993Z,2.04
2022-12-03T16:54:13.035Z,2.09
2022-12-03T16:56:41.035Z,2.08
2022-12-03T16:59:09.070Z,2.06
2022-12-03T17:01:37.154Z,2.02
2022-12-03T17:04:05.215Z,1.99
2022-12-03T17:06:33.238Z,1.96
2022-12-03T17:09:01.697Z,1.91
2022-12-03T17:11:29.814Z,1.86
2022-12-03T17:13:57.851Z,1.83
2022-12-03T17:16:25.984Z,1.87
2022-12-03T17:18:54.058Z,1.84
2022-12-03T17:21:22.233Z,1.82
2022-12-03T17:23:51.225Z,1.78
2022-12-03T17:26:19.928Z,1.74
2022-12-03T17:28:48.026Z,1.73
2022-12-03T17:31:16.192Z,1.71
2022-12-03T17:33:44.244Z,1.68
2022-12-03T17:36:12.298Z,1.70
2022-12-03T17:38:40.681Z,1.78
2022-12-03T17:41:08.777Z,1.78
2022-12-03T17:43:36.868Z,1.78
2022-12-03T17:46:06.823Z,1.81
2022-12-03T17:48:35.537Z,1.84
2022-12-03T17:51:03.696Z,1.86
2022-12-03T17:53:31.715Z,1.88
2022-12-03T17:55:59.754Z,1.93
2022-12-03T17:58:28.668Z,1.95
2022-12-03T18:01:02.069Z,1.96
2022-12-03T18:03:31.782Z,1.98
2022-12-03T18:05:59.920Z,2.01
2022-12-03T18:08:28.094Z,1.99
2022-12-03T18:10:56.203Z,2.01
2022-12-03T18:13:24.268Z,2.09
2022-12-03T18:15:52.320Z,2.09
2022-12-03T18:18:20.392Z,2.08
2022-12-03T18:20:48.472Z,2.05
2022-12-03T18:23:16.526Z,2.03
2022-12-03T18:25:44.612Z,1.99
2022-12-03T18:28:12.672Z,1.95
2022-12-03T18:30:40.716Z,1.99
2022-12-03T18:33:08.767Z,1.99
2022-12-03T18:35:37.014Z,1.97
2022-12-03T18:38:05.418Z,1.97
2022-12-03T18:40:33.542Z,1.94
2022-12-03T18:43:01.557Z,1.93
2022-12-03T18:45:29.605Z,1.95
2022-12-03T18:47:57.809Z,1.94
2022-12-03T18:50:26.068Z,1.93
2022-12-03T18:52:54.104Z,1.93
2022-12-03T18:55:22.258Z,1.95
2022-12-03T18:57:50.347Z,1.96
2022-12-03T19:00:18.755Z,2.02
2022-12-03T19:03:03.953Z,2.04
2022-12-03T19:05:34.320Z,2.02
2022-12-03T19:08:03.306Z,2.00
2022-12-03T19:10:31.444Z,1.96
2022-12-03T19:12:59.521Z,1.95
2022-12-03T19:15:27.614Z,1.98
2022-12-03T19:17:55.688Z,1.95
2022-12-03T19:20:23.741Z,1.93
2022-12-03T19:22:51.732Z,1.94
2022-12-03T19:25:19.812Z,1.94
2022-12-03T19:27:50.253Z,1.96
2022-12-03T19:30:18.326Z,2.03
2022-12-03T19:32:46.653Z,2.02
2022-12-03T19:35:14.671Z,2.01
2022-12-03T19:37:42.832Z,2.01
2022-12-03T19:40:11.103Z,1.99
2022-12-03T19:42:39.266Z,1.97
2022-12-03T19:45:08.740Z,2.04
2022-12-03T19:47:37.327Z,2.05
2022-12-03T19:50:06.816Z,2.03
2022-12-03T19:52:35.405Z,2.03
2022-12-03T19:55:03.780Z,2.03
2022-12-03T19:57:31.826Z,2.06
2022-12-03T20:00:01.296Z,2.12
2022-12-03T20:02:29.564Z,2.13
2022-12-03T20:04:57.850Z,2.13
2022-12-03T20:07:25.979Z,2.14
2022-12-03T20:09:54.500Z,2.14
2022-12-03T20:12:22.805Z,2.16
2022-12-03T20:14:51.855Z,2.19
2022-12-03T20:17:20.021Z,2.22
2022-12-03T20:19:48.241Z,2.24
2022-12-03T20:22:16.285Z,2.19
2022-12-03T20:24:44.334Z,2.17
2022-12-03T20:27:12.372Z,2.17
2022-12-03T20:29:40.384Z,2.19
2022-12-03T20:32:08.719Z,2.25
2022-12-03T20:34:36.922Z,2.25
2022-12-03T20:37:04.977Z,2.21
2022-12-03T20:39:33.033Z,2.20
2022-12-03T20:42:01.082Z,2.19
2022-12-03T20:44:29.157Z,2.17
2022-12-03T20:46:57.240Z,2.19
2022-12-03T20:49:25.287Z,2.19
2022-12-03T20:51:53.358Z,2.15
2022-12-03T20:54:21.480Z,2.15
2022-12-03T20:56:50.207Z,2.16
2022-12-03T20:59:18.349Z,2.14
2022-12-03T21:01:46.565Z,2.15
2022-12-03T21:04:16.240Z,2.12
2022-12-03T21:06:45.668Z,2.11
2022-12-03T21:09:14.274Z,2.08
2022-12-03T21:11:42.689Z,2.07
2022-12-03T21:14:11.414Z,2.10
2022-12-03T21:17:06.643Z,2.12
2022-12-03T21:19:28.425Z,2.11
2022-12-03T21:21:56.607Z,2.11
2022-12-03T21:24:24.834Z,2.06
2022-12-03T21:26:52.913Z,2.06
2022-12-03T21:29:20.939Z,2.09
2022-12-03T21:31:48.980Z,2.13
2022-12-03T21:34:17.136Z,2.08
2022-12-03T21:36:45.185Z,2.07
2022-12-03T21:39:13.261Z,2.04
2022-12-03T21:41:41.395Z,2.05
2022-12-03T21:44:30.993Z,2.15
2022-12-03T21:47:11.512Z,2.16
2022-12-03T21:49:42.080Z,2.13
2022-12-03T21:52:10.730Z,2.12
2022-12-03T21:54:38.922Z,2.13
2022-12-03T21:57:07.053Z,2.16
2022-12-03T21:59:35.245Z,2.20
2022-12-03T22:02:03.937Z,2.19
2022-12-03T22:04:32.147Z,2.20
2022-12-03T22:07:00.196Z,2.20
2022-12-03T22:09:28.397Z,2.19
2022-12-03T22:11:59.367Z,2.23
2022-12-03T22:14:28.403Z,2.29
2022-12-03T22:16:56.512Z,2.30
2022-12-03T22:19:26.117Z,2.32
2022-12-03T22:21:54.204Z,2.33
2022-12-03T22:24:23.882Z,2.34
2022-12-03T22:26:53.644Z,2.34
2022-12-03T22:29:22.091Z,2.38
2022-12-03T22:31:50.409Z,2.38
2022-12-03T22:34:18.579Z,2.36
2022-12-03T22:36:46.655Z,2.36
2022-12-03T22:39:14.701Z,2.34
2022-12-03T22:41:42.776Z,2.36
2022-12-03T22:44:11.594Z,2.38
2022-12-03T22:46:39.808Z,2.39
2022-12-03T22:49:08.166Z,2.39
2022-12-03T22:51:36.324Z,2.33
2022-12-03T22:54:05.696Z,2.26
2022-12-03T22:56:33.825Z,2.26
2022-12-03T22:59:01.906Z,2.31
2022-12-03T23:01:35.606Z,2.29
2022-12-03T23:04:04.692Z,2.31
2022-12-03T23:06:35.175Z,2.32
2022-12-03T23:09:05.736Z,2.31
2022-12-03T23:11:34.597Z,2.27
2022-12-03T23:14:03.354Z,2.33
2022-12-03T23:16:33.350Z,2.37
2022-12-03T23:19:02.717Z,2.38
2022-12-03T23:21:34.183Z,2.39
2022-12-03T23:24:03.886Z,2.36
2022-12-03T23:26:36.042Z,2.38
2022-12-03T23:29:07.905Z,2.45
2022-12-03T23:31:36.359Z,2.46
2022-12-03T23:34:07.525Z,2.46
2022-12-03T23:36:42.770Z,2.43
2022-12-03T23:39:13.094Z,2.37
2022-12-03T23:41:44.635Z,2.35
2022-12-03T23:44:12.673Z,2.39
2022-12-03T23:46:40.848Z,2.40
2022-12-03T23:49:14.944Z,2.38
2022-12-03T23:51:43.038Z,2.37
2022-12-03T23:54:12.263Z,2.36
2022-12-03T23:56:42.523Z,2.34
2022-12-03T23:59:10.636Z,2.37
